Tarata, Bolivia
Current Conditions -  °F | °C
As of 8:00 AM on Wednesday 22 Oct 2014 (Local Time) from SLCB Reporting Station
Smoke Smoke  
Wind Chill: 59°   Ceiling: 20000
Heat Index: 59°   Visibility: 1.2mi
Dew Point: 52°   Wind: 0mph
Humidity: 77%   Direction: NA
Pressure: 30.39"   Gusts: NA
Location:  17.62°S, 66.03°W
Report Text: SLCB 221200Z 00000KT 2000S FU FEW017 SCT080 BKN200 15/11 Q1029
Loading
Personal Weather Stations






























Interactive Weather Map
Tropical Storm Tracking
New forecast layout! Learn more

10-Day Weather Forecast

Advertisements
Track Severe Weather on mobile